createdAt,value
2018-01-12T00:01:00.381Z,23.90
2018-01-12T00:03:27.849Z,18.60
2018-01-12T00:05:55.358Z,23.63
2018-01-12T00:08:22.822Z,20.60
2018-01-12T00:10:51.442Z,28.87
2018-01-12T00:13:18.890Z,20.57
2018-01-12T00:15:46.362Z,21.70
2018-01-12T00:18:15.354Z,21.70
2018-01-12T00:20:42.975Z,30.23
2018-01-12T00:23:10.689Z,23.27
2018-01-12T00:25:38.951Z,22.60
2018-01-12T00:28:06.418Z,20.93
2018-01-12T00:30:33.864Z,24.03
2018-01-12T00:33:01.504Z,20.70
2018-01-12T00:35:29.695Z,20.00
2018-01-12T00:37:57.172Z,18.20
2018-01-12T00:40:24.794Z,18.67
2018-01-12T00:42:52.287Z,23.93
2018-01-12T00:45:20.525Z,27.37
2018-01-12T00:47:48.017Z,26.67
2018-01-12T00:50:16.353Z,21.40
2018-01-12T00:52:43.833Z,25.57
2018-01-12T00:55:11.313Z,26.47
2018-01-12T00:57:38.768Z,21.57
2018-01-12T01:00:06.736Z,22.83
2018-01-12T01:02:34.210Z,23.03
2018-01-12T01:05:02.572Z,24.20
2018-01-12T01:07:30.026Z,24.10
2018-01-12T01:09:57.653Z,24.53
2018-01-12T01:12:25.149Z,23.67
2018-01-12T01:14:52.685Z,23.52
2018-01-12T01:17:20.167Z,27.53
2018-01-12T01:19:47.622Z,17.80
2018-01-12T01:22:15.113Z,23.85
2018-01-12T01:24:42.545Z,25.40
2018-01-12T01:27:10.160Z,23.00
2018-01-12T01:29:37.643Z,23.17
2018-01-12T01:32:05.090Z,24.93
2018-01-12T01:34:32.566Z,21.90
2018-01-12T01:37:00.084Z,22.50
2018-01-12T01:39:27.520Z,23.97
2018-01-12T01:41:55.000Z,22.27
2018-01-12T01:44:22.510Z,26.52
2018-01-12T01:46:50.145Z,24.33
2018-01-12T01:49:19.305Z,21.52
2018-01-12T01:51:46.918Z,27.53
2018-01-12T01:54:15.260Z,24.30
2018-01-12T01:56:43.762Z,23.35
2018-01-12T01:59:11.302Z,23.93
2018-01-12T02:01:38.776Z,26.80
2018-01-12T02:04:10.125Z,28.35
2018-01-12T02:06:37.568Z,34.53
2018-01-12T02:09:05.046Z,35.35
2018-01-12T02:11:33.358Z,41.63
2018-01-12T02:14:00.980Z,34.60
2018-01-12T02:16:28.627Z,38.10
2018-01-12T02:18:56.097Z,43.95
2018-01-12T02:21:23.593Z,37.45
2018-01-12T02:23:51.211Z,43.63
2018-01-12T02:26:18.679Z,40.55
2018-01-12T02:28:46.127Z,37.30
2018-01-12T02:31:13.632Z,32.40
2018-01-12T02:33:41.963Z,47.38
2018-01-12T02:36:09.431Z,43.77
2018-01-12T02:38:36.877Z,49.13
2018-01-12T02:41:04.711Z,44.27
2018-01-12T02:43:32.476Z,42.53
2018-01-12T02:46:00.904Z,41.80
2018-01-12T02:48:28.645Z,43.20
2018-01-12T02:50:56.144Z,37.97
2018-01-12T02:53:23.617Z,45.30
2018-01-12T02:55:51.073Z,54.67
2018-01-12T02:58:18.686Z,40.95
2018-01-12T03:00:46.166Z,37.73
2018-01-12T03:03:13.618Z,37.73
2018-01-12T03:05:41.312Z,42.47
2018-01-12T03:08:09.468Z,35.33
2018-01-12T03:10:36.986Z,41.67
2018-01-12T03:13:04.769Z,40.80
2018-01-12T03:15:32.245Z,44.80
2018-01-12T03:17:59.973Z,36.77
2018-01-12T03:20:27.642Z,44.53
2018-01-12T03:22:55.872Z,40.33
2018-01-12T03:25:23.345Z,41.70
2018-01-12T03:27:50.814Z,45.47
2018-01-12T03:30:18.374Z,39.53
2018-01-12T03:32:45.849Z,38.80
2018-01-12T03:35:13.286Z,38.87
2018-01-12T03:37:40.846Z,43.53
2018-01-12T03:40:08.329Z,37.03
2018-01-12T03:42:35.779Z,38.33
2018-01-12T03:45:03.417Z,40.00
2018-01-12T03:47:31.645Z,41.92
2018-01-12T03:49:59.097Z,42.27
2018-01-12T03:52:26.858Z,35.67
2018-01-12T03:54:54.280Z,43.73
2018-01-12T03:57:21.761Z,41.60
2018-01-12T03:59:49.372Z,39.63
2018-01-12T04:02:16.840Z,42.30
2018-01-12T04:04:45.232Z,35.47
2018-01-12T04:07:12.752Z,36.00
2018-01-12T04:09:40.214Z,56.57
2018-01-12T04:12:07.672Z,42.42
2018-01-12T04:14:35.230Z,46.67
2018-01-12T04:17:02.921Z,42.88
2018-01-12T04:19:30.681Z,40.07
2018-01-12T04:22:02.302Z,58.28
2018-01-12T04:24:29.851Z,44.00
2018-01-12T04:26:57.348Z,46.30
2018-01-12T04:29:24.862Z,45.67
2018-01-12T04:31:52.314Z,44.50
2018-01-12T04:34:20.029Z,43.10
2018-01-12T04:36:48.417Z,44.35
2018-01-12T04:39:15.933Z,45.60
2018-01-12T04:41:43.601Z,44.87
2018-01-12T04:44:11.057Z,45.70
2018-01-12T04:46:38.549Z,55.47
2018-01-12T04:49:06.323Z,48.53
2018-01-12T04:51:33.814Z,45.20
2018-01-12T04:54:02.119Z,43.87
2018-01-12T04:56:29.710Z,44.63
2018-01-12T04:58:57.198Z,45.20
2018-01-12T05:01:26.373Z,52.20
2018-01-12T05:03:53.881Z,40.60
2018-01-12T05:06:25.912Z,49.40
2018-01-12T05:08:53.398Z,50.35
2018-01-12T05:11:24.130Z,57.53
2018-01-12T05:13:52.183Z,49.73
2018-01-12T05:16:19.726Z,48.70
2018-01-12T05:18:47.190Z,43.40
2018-01-12T05:21:18.628Z,43.47
2018-01-12T05:23:47.002Z,50.22
2018-01-12T05:26:14.481Z,40.80
2018-01-12T05:28:41.937Z,42.07
2018-01-12T05:31:09.390Z,47.13
2018-01-12T05:33:36.853Z,48.33
2018-01-12T05:36:04.352Z,55.87
2018-01-12T05:38:31.817Z,46.80
2018-01-12T05:40:59.276Z,36.93
2018-01-12T05:43:26.773Z,37.00
2018-01-12T05:45:55.052Z,47.13
2018-01-12T05:48:22.507Z,45.97
2018-01-12T05:50:53.330Z,40.33
2018-01-12T05:53:20.781Z,49.90
2018-01-12T05:55:48.224Z,45.00
2018-01-12T05:58:15.894Z,43.58
2018-01-12T06:00:55.147Z,43.90
2018-01-12T06:03:34.458Z,39.10
2018-01-12T06:06:14.658Z,38.43
2018-01-12T06:08:42.320Z,45.33
2018-01-12T06:11:10.009Z,45.15
2018-01-12T06:13:37.537Z,44.60
2018-01-12T06:16:05.774Z,45.63
2018-01-12T06:18:33.250Z,47.15
2018-01-12T06:21:00.728Z,47.25
2018-01-12T06:23:29.889Z,38.85
2018-01-12T06:25:57.361Z,47.17
2018-01-12T06:28:24.821Z,41.57
2018-01-12T06:30:52.382Z,41.60
2018-01-12T06:33:20.035Z,44.53
2018-01-12T06:35:48.325Z,46.32
2018-01-12T06:38:16.665Z,43.92
2018-01-12T06:40:44.260Z,43.20
2018-01-12T06:43:11.729Z,42.33
2018-01-12T06:45:39.371Z,41.95
2018-01-12T06:48:07.789Z,39.93
2018-01-12T06:50:35.432Z,47.00
2018-01-12T06:53:03.649Z,49.03
2018-01-12T06:55:32.046Z,43.42
2018-01-12T06:57:59.687Z,46.22
2018-01-12T07:00:27.591Z,46.77
2018-01-12T07:02:55.065Z,39.97
2018-01-12T07:05:22.672Z,52.27
2018-01-12T07:07:50.205Z,50.07
2018-01-12T07:10:17.737Z,46.65
2018-01-12T07:12:46.105Z,55.67
2018-01-12T07:15:13.589Z,50.30
2018-01-12T07:17:41.861Z,50.63
2018-01-12T07:20:21.197Z,47.25
2018-01-12T07:23:04.662Z,51.00
2018-01-12T07:25:32.093Z,45.63
2018-01-12T07:27:59.796Z,47.22
2018-01-12T07:30:27.289Z,59.20
2018-01-12T07:32:54.757Z,49.83
2018-01-12T07:35:22.986Z,42.30
2018-01-12T07:37:53.889Z,70.35
2018-01-12T07:40:21.385Z,46.33
2018-01-12T07:42:49.976Z,49.03
2018-01-12T07:45:17.669Z,54.37
2018-01-12T07:47:45.907Z,43.50
2018-01-12T07:50:13.795Z,47.25
2018-01-12T07:52:50.344Z,52.87
2018-01-12T07:55:17.793Z,45.57
2018-01-12T07:57:45.256Z,47.08
2018-01-12T08:00:12.823Z,40.53
2018-01-12T08:02:46.748Z,38.53
2018-01-12T08:05:15.119Z,43.13
2018-01-12T08:07:42.584Z,45.67
2018-01-12T08:10:21.473Z,47.37
2018-01-12T08:12:48.964Z,50.75
2018-01-12T08:15:16.440Z,49.55
2018-01-12T08:17:43.914Z,40.40
2018-01-12T08:20:11.430Z,39.90
2018-01-12T08:22:39.001Z,45.38
2018-01-12T08:25:06.465Z,46.07
2018-01-12T08:27:33.920Z,44.67
2018-01-12T08:30:02.185Z,45.67
2018-01-12T08:32:30.124Z,39.38
2018-01-12T08:34:57.648Z,41.77
2018-01-12T08:37:25.160Z,37.22
2018-01-12T08:39:52.620Z,42.72
2018-01-12T08:42:20.154Z,36.30
2018-01-12T08:44:47.642Z,39.80
2018-01-12T08:47:15.093Z,39.13
2018-01-12T08:49:42.584Z,35.57
2018-01-12T08:52:10.032Z,34.60
2018-01-12T08:54:38.420Z,40.40
2018-01-12T08:57:05.966Z,33.43
2018-01-12T08:59:33.436Z,41.57
2018-01-12T09:02:00.889Z,38.08
2018-01-12T09:04:28.392Z,36.28
2018-01-12T09:06:55.854Z,36.27
2018-01-12T09:09:23.312Z,34.60
2018-01-12T09:11:51.005Z,37.50
2018-01-12T09:14:30.283Z,35.27
2018-01-12T09:16:58.401Z,33.45
2018-01-12T09:19:29.417Z,37.55
2018-01-12T09:21:56.896Z,37.25
2018-01-12T09:24:24.364Z,39.57
2018-01-12T09:26:51.840Z,40.60
2018-01-12T09:29:19.485Z,36.88
2018-01-12T09:31:50.694Z,35.50
2018-01-12T09:37:18.105Z,35.58
2018-01-12T09:39:48.917Z,34.93
2018-01-12T09:42:16.404Z,32.87
2018-01-12T09:44:43.877Z,42.17
2018-01-12T09:47:24.045Z,36.90
2018-01-12T09:49:52.315Z,31.20
2018-01-12T09:52:19.984Z,38.80
2018-01-12T09:54:52.419Z,31.07
2018-01-12T09:57:20.542Z,34.75
2018-01-12T09:59:48.205Z,34.30
2018-01-12T10:02:15.648Z,34.60
2018-01-12T10:04:43.127Z,35.57
2018-01-12T10:07:19.269Z,36.92
2018-01-12T10:09:48.530Z,36.20
2018-01-12T10:12:19.073Z,34.67
2018-01-12T10:14:46.709Z,34.70
2018-01-12T10:17:14.215Z,34.08
2018-01-12T10:20:02.308Z,39.50
2018-01-12T10:22:29.790Z,38.77
2018-01-12T10:24:57.272Z,36.23
2018-01-12T10:27:24.740Z,35.37
2018-01-12T10:29:57.700Z,36.97
2018-01-12T10:32:26.082Z,32.87
2018-01-12T10:35:07.104Z,31.83
2018-01-12T10:37:34.588Z,32.58
2018-01-12T10:40:02.142Z,35.72
2018-01-12T10:42:29.704Z,41.05
2018-01-12T10:44:57.393Z,38.17
2018-01-12T10:47:26.494Z,34.80
2018-01-12T10:50:17.700Z,36.10
2018-01-12T10:52:49.069Z,33.47
2018-01-12T10:55:16.752Z,36.13
2018-01-12T10:57:44.493Z,39.28
2018-01-12T11:00:23.820Z,31.87
2018-01-12T11:02:52.040Z,31.12
2018-01-12T11:05:19.511Z,34.03
2018-01-12T11:07:46.974Z,36.05
2018-01-12T11:10:14.413Z,33.37
2018-01-12T11:12:42.204Z,31.45
2018-01-12T11:15:10.601Z,31.60
2018-01-12T11:17:38.362Z,35.63
2018-01-12T11:20:05.834Z,34.85
2018-01-12T11:22:33.320Z,33.97
2018-01-12T11:25:00.784Z,36.57
2018-01-12T11:27:28.480Z,46.28
2018-01-12T11:29:55.956Z,35.80
2018-01-12T11:32:23.917Z,31.17
2018-01-12T11:34:51.989Z,31.58
2018-01-12T11:37:19.433Z,32.70
2018-01-12T11:39:46.913Z,31.30
2018-01-12T11:42:15.244Z,39.17
2018-01-12T11:44:43.418Z,30.67
2018-01-12T11:47:10.844Z,61.15
2018-01-12T11:49:38.336Z,34.43
2018-01-12T11:52:05.791Z,28.80
2018-01-12T11:54:33.746Z,30.20
2018-01-12T11:57:05.649Z,34.10
2018-01-12T11:59:33.121Z,30.07
2018-01-12T12:02:00.616Z,33.92
2018-01-12T12:04:28.211Z,33.47
2018-01-12T12:06:55.785Z,30.43
2018-01-12T12:09:23.544Z,33.37
2018-01-12T12:11:56.241Z,30.50
2018-01-12T12:14:23.697Z,35.63
2018-01-12T12:16:52.840Z,33.02
2018-01-12T12:19:20.321Z,31.80
2018-01-12T12:21:47.807Z,31.10
2018-01-12T12:24:15.294Z,34.55
2018-01-12T12:26:42.776Z,36.83
2018-01-12T12:29:10.233Z,30.20
2018-01-12T12:31:37.712Z,35.80
2018-01-12T12:34:05.257Z,31.60
2018-01-12T12:36:32.741Z,33.43
2018-01-12T12:39:01.029Z,30.48
2018-01-12T12:41:28.585Z,33.23
2018-01-12T12:43:56.096Z,33.67
2018-01-12T12:46:23.606Z,35.30
2018-01-12T12:48:51.108Z,36.73
2018-01-12T12:51:27.024Z,34.10
2018-01-12T12:53:57.432Z,31.20
2018-01-12T12:56:25.094Z,30.98
2018-01-12T12:58:52.756Z,37.40
2018-01-12T13:01:21.171Z,36.78
2018-01-12T13:03:49.401Z,35.80
2018-01-12T13:06:16.876Z,32.43
2018-01-12T13:08:44.505Z,45.40
2018-01-12T13:11:11.964Z,27.87
2018-01-12T13:13:41.149Z,35.58
2018-01-12T13:16:08.629Z,30.20
2018-01-12T13:18:36.132Z,28.53
2018-01-12T13:21:05.458Z,26.77
2018-01-12T13:23:32.922Z,24.70
2018-01-12T13:26:00.455Z,31.10
2018-01-12T13:28:28.664Z,30.93
2018-01-12T13:30:56.148Z,29.80
2018-01-12T13:33:23.600Z,30.23
2018-01-12T13:35:51.167Z,35.80
2018-01-12T13:38:18.886Z,32.42
2018-01-12T13:40:46.400Z,29.03
2018-01-12T13:43:13.877Z,32.65
2018-01-12T13:45:41.334Z,35.10
2018-01-12T13:48:08.821Z,30.37
2018-01-12T13:50:36.349Z,32.47
2018-01-12T13:53:03.934Z,35.38
2018-01-12T13:55:32.449Z,26.60
2018-01-12T13:57:59.913Z,32.97
2018-01-12T14:00:27.397Z,24.07
2018-01-12T14:02:55.127Z,36.23
2018-01-12T14:05:22.631Z,30.75
2018-01-12T14:07:50.244Z,31.97
2018-01-12T14:10:17.704Z,31.35
2018-01-12T14:12:46.113Z,27.60
2018-01-12T14:15:13.593Z,33.22
2018-01-12T14:17:41.044Z,31.17
2018-01-12T14:20:08.557Z,35.03
2018-01-12T14:22:36.099Z,39.85
2018-01-12T14:25:03.558Z,30.83
2018-01-12T14:27:31.013Z,39.90
2018-01-12T14:29:58.554Z,45.03
2018-01-12T14:32:26.809Z,33.87
2018-01-12T14:34:54.866Z,30.17
2018-01-12T14:37:22.736Z,33.93
2018-01-12T14:39:51.022Z,32.40
2018-01-12T14:42:19.116Z,34.95
2018-01-12T14:44:52.723Z,33.50
2018-01-12T14:47:20.703Z,38.33
2018-01-12T14:49:48.172Z,35.08
2018-01-12T14:52:15.866Z,32.47
2018-01-12T14:54:43.652Z,30.00
2018-01-12T14:57:11.157Z,30.80
2018-01-12T14:59:45.016Z,42.10
2018-01-12T15:02:13.266Z,30.10
2018-01-12T15:04:41.756Z,30.03
2018-01-12T15:07:09.830Z,30.67
2018-01-12T15:09:37.274Z,40.09
2018-01-12T15:12:04.743Z,30.50
2018-01-12T15:14:32.233Z,36.40
2018-01-12T15:16:59.904Z,31.00
2018-01-12T15:19:27.408Z,29.42
2018-01-12T15:21:55.636Z,31.80
2018-01-12T15:24:24.527Z,30.35
2018-01-12T15:26:52.061Z,33.30
2018-01-12T15:29:19.525Z,33.55
2018-01-12T15:31:46.974Z,30.20
2018-01-12T15:34:14.478Z,28.62
2018-01-12T15:36:42.880Z,37.20
2018-01-12T15:39:10.552Z,33.30
2018-01-12T15:41:38.112Z,30.90
2018-01-12T15:44:05.660Z,29.87
2018-01-12T15:46:36.905Z,30.17
2018-01-12T15:49:04.346Z,29.80
2018-01-12T15:51:32.389Z,40.42
2018-01-12T15:53:59.874Z,31.37
2018-01-12T15:56:27.344Z,29.07
2018-01-12T15:58:57.259Z,27.77
2018-01-12T16:01:25.024Z,24.50
2018-01-12T16:03:52.808Z,35.50
2018-01-12T16:06:20.253Z,32.33
2018-01-12T16:08:47.792Z,31.17
2018-01-12T16:11:15.477Z,34.25
2018-01-12T16:13:42.926Z,28.47
2018-01-12T16:16:15.948Z,30.20
2018-01-12T16:18:43.629Z,29.93
2018-01-12T16:21:12.050Z,27.98
2018-01-12T16:23:40.418Z,32.73
2018-01-12T16:26:07.903Z,34.73
2018-01-12T16:28:36.064Z,30.55
2018-01-12T16:31:03.533Z,29.87
2018-01-12T16:33:31.085Z,27.30
2018-01-12T16:35:58.590Z,31.37
2018-01-12T16:38:26.029Z,37.33
2018-01-12T16:40:53.524Z,30.90
2018-01-12T16:43:21.832Z,36.97
2018-01-12T16:45:49.552Z,31.25
2018-01-12T16:48:17.144Z,30.10
2018-01-12T16:50:44.604Z,32.67
2018-01-12T16:53:12.057Z,28.65
2018-01-12T16:55:41.028Z,30.87
2018-01-12T16:58:08.697Z,33.38
2018-01-12T17:00:36.212Z,36.80
2018-01-12T17:03:03.722Z,31.45
2018-01-12T17:05:31.410Z,28.60
2018-01-12T17:07:58.920Z,32.43
2018-01-12T17:10:26.381Z,32.43
2018-01-12T17:12:53.883Z,31.97
2018-01-12T17:15:21.357Z,32.57
2018-01-12T17:17:48.944Z,27.30
2018-01-12T17:20:17.262Z,34.40
2018-01-12T17:22:44.692Z,29.50
2018-01-12T17:25:12.201Z,30.50
2018-01-12T17:27:40.446Z,29.95
2018-01-12T17:30:08.233Z,27.90
2018-01-12T17:32:40.037Z,29.42
2018-01-12T17:35:07.528Z,34.93
2018-01-12T17:37:34.988Z,32.13
2018-01-12T17:40:02.474Z,34.20
2018-01-12T17:42:31.639Z,30.15
2018-01-12T17:44:59.147Z,32.60
2018-01-12T17:47:33.322Z,39.55
2018-01-12T17:50:00.794Z,34.50
2018-01-12T17:52:28.242Z,34.78
2018-01-12T17:54:55.733Z,35.28
2018-01-12T17:57:23.213Z,31.23
2018-01-12T17:59:52.666Z,31.30
2018-01-12T18:02:20.383Z,33.88
2018-01-12T18:04:47.912Z,26.97
2018-01-12T18:07:15.785Z,38.78
2018-01-12T18:09:43.426Z,40.60
2018-01-12T18:12:10.900Z,41.13
2018-01-12T18:14:38.381Z,30.90
2018-01-12T18:17:05.908Z,33.05
2018-01-12T18:19:33.468Z,33.67
2018-01-12T18:22:01.701Z,32.10
2018-01-12T18:24:29.785Z,31.58
2018-01-12T18:26:57.277Z,36.73
2018-01-12T18:29:24.763Z,29.13
2018-01-12T18:31:52.670Z,31.63
2018-01-12T18:34:20.236Z,38.97
2018-01-12T18:36:49.380Z,31.42
2018-01-12T18:39:16.898Z,30.97
2018-01-12T18:41:44.372Z,35.67
2018-01-12T18:44:11.861Z,31.93
2018-01-12T18:46:39.324Z,36.00
2018-01-12T18:49:06.798Z,31.48
2018-01-12T18:51:34.604Z,30.30
2018-01-12T18:54:02.868Z,27.60
2018-01-12T18:56:32.366Z,33.67
2018-01-12T18:59:00.030Z,29.58
2018-01-12T19:01:27.489Z,37.93
2018-01-12T19:03:58.656Z,33.70
2018-01-12T19:06:26.101Z,48.50
2018-01-12T19:08:53.591Z,37.77
2018-01-12T19:11:21.220Z,34.40
2018-01-12T19:13:48.721Z,33.97
2018-01-12T19:16:16.837Z,33.50
2018-01-12T19:18:44.298Z,31.58
2018-01-12T19:21:11.776Z,42.53
2018-01-12T19:23:39.435Z,32.80
2018-01-12T19:26:06.880Z,36.45
2018-01-12T19:28:34.421Z,26.90
2018-01-12T19:31:02.262Z,29.03
2018-01-12T19:33:31.140Z,31.32
2018-01-12T19:36:05.075Z,31.23
2018-01-12T19:38:32.581Z,30.20
2018-01-12T19:41:00.312Z,28.17
2018-01-12T19:43:29.460Z,37.47
2018-01-12T19:45:56.947Z,27.98
2018-01-12T19:48:24.451Z,26.77
2018-01-12T19:50:51.938Z,32.60
2018-01-12T19:53:20.383Z,30.15
2018-01-12T19:55:47.879Z,26.90
2018-01-12T19:58:15.582Z,27.77
2018-01-12T20:00:43.061Z,27.67
2018-01-12T20:03:10.520Z,25.00
2018-01-12T20:05:38.062Z,30.60
2018-01-12T20:08:05.536Z,35.50
2018-01-12T20:10:34.743Z,27.60
2018-01-12T20:13:02.427Z,26.70
2018-01-12T20:15:29.914Z,28.45
2018-01-12T20:17:57.516Z,27.77
2018-01-12T20:20:25.027Z,31.70
2018-01-12T20:22:53.439Z,26.23
2018-01-12T20:25:20.896Z,43.55
2018-01-12T20:27:48.365Z,17.70
2018-01-12T20:30:15.888Z,23.17
2018-01-12T20:32:43.373Z,23.90
2018-01-12T20:35:14.489Z,29.37
2018-01-12T20:37:43.143Z,22.37
2018-01-12T20:40:10.636Z,29.87
2018-01-12T20:42:38.104Z,28.50
2018-01-12T20:45:06.021Z,30.37
2018-01-12T20:47:33.496Z,19.27
2018-01-12T20:50:00.940Z,33.27
2018-01-12T20:52:28.440Z,24.23
2018-01-12T20:54:56.825Z,30.07
2018-01-12T20:57:25.631Z,21.53
2018-01-12T20:59:53.294Z,25.63
2018-01-12T21:02:21.135Z,20.83
2018-01-12T21:04:48.796Z,23.98
2018-01-12T21:07:19.183Z,24.87
2018-01-12T21:09:46.696Z,29.00
2018-01-12T21:12:14.348Z,26.50
2018-01-12T21:14:41.808Z,27.80
2018-01-12T21:17:09.562Z,28.67
2018-01-12T21:19:37.029Z,27.50
2018-01-12T21:22:04.952Z,29.77
2018-01-12T21:24:32.460Z,25.42
2018-01-12T21:26:59.900Z,24.87
2018-01-12T21:29:27.409Z,24.80
2018-01-12T21:31:54.876Z,27.27
2018-01-12T21:34:22.345Z,31.50
2018-01-12T21:36:49.813Z,30.43
2018-01-12T21:39:17.297Z,30.70
2018-01-12T21:41:44.976Z,27.70
2018-01-12T21:44:14.221Z,28.15
2018-01-12T21:46:41.751Z,26.67
2018-01-12T21:49:09.977Z,28.23
2018-01-12T21:51:45.317Z,36.10
2018-01-12T21:54:12.760Z,36.72
2018-01-12T21:56:40.239Z,31.93
2018-01-12T21:59:08.208Z,33.45
2018-01-12T22:01:36.619Z,27.70
2018-01-12T22:04:04.105Z,31.17
2018-01-12T22:06:31.568Z,30.88
2018-01-12T22:08:59.056Z,29.70
2018-01-12T22:11:26.525Z,32.73
2018-01-12T22:13:53.997Z,36.40
2018-01-12T22:16:21.562Z,31.67
2018-01-12T22:18:49.130Z,28.70
2018-01-12T22:21:16.892Z,32.95
2018-01-12T22:23:45.305Z,31.03
2018-01-12T22:26:13.127Z,31.42
2018-01-12T22:28:41.497Z,30.10
2018-01-12T22:31:09.068Z,39.38
2018-01-12T22:33:37.298Z,31.03
2018-01-12T22:36:04.779Z,29.43
2018-01-12T22:38:32.245Z,35.30
2018-01-12T22:40:59.680Z,36.80
2018-01-12T22:43:28.676Z,33.57
2018-01-12T22:45:56.128Z,30.07
2018-01-12T22:48:23.604Z,34.97
2018-01-12T22:50:51.142Z,27.33
2018-01-12T22:53:22.367Z,36.10
2018-01-12T22:55:50.405Z,32.05
2018-01-12T22:58:18.636Z,35.67
2018-01-12T23:00:46.101Z,32.47
2018-01-12T23:03:13.580Z,31.40
2018-01-12T23:05:41.301Z,32.60
2018-01-12T23:08:13.114Z,34.55
2018-01-12T23:10:41.377Z,35.20
2018-01-12T23:13:10.718Z,30.92
2018-01-12T23:15:38.270Z,32.70
2018-01-12T23:18:05.828Z,39.45
2018-01-12T23:20:33.609Z,28.30
2018-01-12T23:23:05.400Z,33.67
2018-01-12T23:25:33.854Z,26.92
2018-01-12T23:28:01.308Z,32.28
2018-01-12T23:30:29.720Z,34.38
2018-01-12T23:32:57.255Z,34.30
2018-01-12T23:35:24.825Z,29.93
2018-01-12T23:37:52.308Z,19.62
2018-01-12T23:40:19.767Z,23.73
2018-01-12T23:42:47.260Z,23.87
2018-01-12T23:45:14.860Z,24.37
2018-01-12T23:47:42.339Z,27.00
2018-01-12T23:50:10.552Z,22.98
2018-01-12T23:52:38.118Z,25.30
2018-01-12T23:55:05.665Z,29.03
2018-01-12T23:57:33.262Z,31.80
